createdAt,value
2018-05-25T00:02:02.061Z,95.00
2018-05-25T00:04:29.608Z,95.00
2018-05-25T00:06:57.170Z,95.00
2018-05-25T00:09:24.689Z,94.90
2018-05-25T00:11:52.265Z,94.70
2018-05-25T00:14:19.842Z,94.70
2018-05-25T00:16:47.381Z,94.80
2018-05-25T00:19:14.981Z,94.90
2018-05-25T00:21:42.540Z,94.90
2018-05-25T00:24:10.164Z,95.20
2018-05-25T00:26:37.733Z,95.30
2018-05-25T00:29:05.362Z,95.40
2018-05-25T00:31:32.932Z,95.40
2018-05-25T00:34:00.528Z,95.40
2018-05-25T00:36:28.069Z,95.50
2018-05-25T00:38:55.711Z,95.40
2018-05-25T00:41:23.263Z,95.50
2018-05-25T00:43:50.892Z,95.60
2018-05-25T00:46:18.465Z,95.50
2018-05-25T00:48:46.042Z,95.40
2018-05-25T00:51:13.599Z,95.40
2018-05-25T00:53:41.478Z,95.30
2018-05-25T00:56:09.042Z,95.40
2018-05-25T00:58:36.648Z,95.50
2018-05-25T01:01:04.591Z,95.50
2018-05-25T01:03:32.144Z,95.40
2018-05-25T01:05:59.701Z,95.50
2018-05-25T01:08:27.302Z,95.50
2018-05-25T01:10:54.902Z,95.50
2018-05-25T01:13:22.526Z,95.40
2018-05-25T01:15:50.102Z,95.40
2018-05-25T01:18:17.653Z,95.40
2018-05-25T01:20:45.228Z,95.40
2018-05-25T01:23:12.781Z,95.40
2018-05-25T01:25:40.399Z,95.40
2018-05-25T01:28:07.956Z,95.40
2018-05-25T01:30:35.541Z,95.40
2018-05-25T01:33:03.089Z,95.40
2018-05-25T01:35:30.638Z,95.50
2018-05-25T01:37:58.187Z,95.50
2018-05-25T01:40:25.829Z,95.60
2018-05-25T01:42:53.427Z,95.70
2018-05-25T01:45:21.030Z,95.70
2018-05-25T01:47:48.613Z,95.70
2018-05-25T01:50:16.645Z,95.60
2018-05-25T01:52:44.196Z,95.60
2018-05-25T01:55:11.771Z,95.50
2018-05-25T01:57:39.326Z,95.70
2018-05-25T02:00:06.966Z,95.70
2018-05-25T02:02:34.557Z,95.80
2018-05-25T02:05:02.121Z,95.90
2018-05-25T02:07:29.706Z,95.90
2018-05-25T02:09:57.639Z,95.80
2018-05-25T02:12:25.187Z,95.80
2018-05-25T02:14:52.782Z,95.70
2018-05-25T02:17:20.779Z,95.60
2018-05-25T02:19:48.358Z,95.60
2018-05-25T02:22:15.933Z,95.50
2018-05-25T02:24:43.511Z,95.50
2018-05-25T02:27:11.104Z,95.50
2018-05-25T02:29:38.706Z,95.60
2018-05-25T02:32:06.281Z,95.60
2018-05-25T02:34:33.874Z,95.50
2018-05-25T02:37:01.453Z,95.50
2018-05-25T02:39:29.005Z,95.60
2018-05-25T02:41:56.671Z,95.50
2018-05-25T02:44:24.216Z,95.40
2018-05-25T02:46:51.778Z,95.40
2018-05-25T02:49:19.323Z,95.30
2018-05-25T02:51:46.916Z,95.30
2018-05-25T02:54:14.465Z,95.20
2018-05-25T02:56:42.049Z,95.20
2018-05-25T02:59:09.595Z,95.20
2018-05-25T03:01:37.184Z,95.20
2018-05-25T03:04:04.742Z,94.90
2018-05-25T03:06:32.290Z,94.80
2018-05-25T03:08:59.825Z,94.80
2018-05-25T03:11:27.435Z,95.10
2018-05-25T03:13:55.028Z,95.00
2018-05-25T03:16:22.613Z,95.10
2018-05-25T03:18:50.232Z,95.10
2018-05-25T03:21:17.811Z,95.20
2018-05-25T03:23:45.342Z,95.30
2018-05-25T03:26:12.987Z,95.40
2018-05-25T03:28:40.494Z,95.40
2018-05-25T03:31:08.090Z,95.40
2018-05-25T03:33:35.638Z,95.50
2018-05-25T03:36:03.267Z,95.40
2018-05-25T03:38:30.826Z,95.40
2018-05-25T03:40:58.486Z,95.40
2018-05-25T03:43:26.044Z,95.50
2018-05-25T03:45:53.627Z,95.50
2018-05-25T03:48:21.266Z,95.40
2018-05-25T03:50:48.823Z,95.40
2018-05-25T03:53:16.462Z,95.30
2018-05-25T03:55:44.016Z,95.30
2018-05-25T03:58:11.628Z,95.20
2018-05-25T04:00:50.899Z,95.30
2018-05-25T04:03:18.484Z,95.40
2018-05-25T04:05:46.931Z,95.40
2018-05-25T04:08:14.528Z,95.40
2018-05-25T04:10:42.083Z,95.50
2018-05-25T04:13:09.639Z,95.50
2018-05-25T04:15:37.214Z,95.50
2018-05-25T04:18:04.827Z,95.60
2018-05-25T04:20:32.394Z,95.60
2018-05-25T04:23:00.011Z,95.70
2018-05-25T04:25:27.637Z,95.60
2018-05-25T04:27:55.261Z,95.60
2018-05-25T04:30:23.224Z,95.50
2018-05-25T04:32:50.807Z,95.60
2018-05-25T04:35:18.363Z,95.40
2018-05-25T04:37:45.926Z,95.00
2018-05-25T04:40:13.459Z,94.80
2018-05-25T04:42:41.059Z,94.70
2018-05-25T04:45:08.616Z,94.70
2018-05-25T04:47:36.220Z,94.70
2018-05-25T04:50:03.762Z,94.50
2018-05-25T04:52:31.418Z,94.50
2018-05-25T04:54:58.958Z,94.50
2018-05-25T04:57:26.543Z,94.20
2018-05-25T04:59:54.183Z,94.20
2018-05-25T05:02:21.745Z,94.00
2018-05-25T05:04:49.335Z,93.90
2018-05-25T05:07:16.898Z,93.80
2018-05-25T05:09:44.530Z,93.90
2018-05-25T05:12:12.082Z,93.90
2018-05-25T05:14:39.665Z,93.80
2018-05-25T05:17:07.215Z,93.50
2018-05-25T05:19:34.789Z,93.70
2018-05-25T05:22:02.373Z,93.80
2018-05-25T05:24:29.955Z,93.70
2018-05-25T05:26:57.494Z,93.50
2018-05-25T05:29:25.044Z,93.40
2018-05-25T05:31:52.594Z,93.30
2018-05-25T05:34:20.188Z,93.00
2018-05-25T05:36:47.720Z,92.70
2018-05-25T05:39:15.303Z,92.50
2018-05-25T05:41:42.844Z,92.60
2018-05-25T05:44:10.390Z,92.50
2018-05-25T05:46:37.938Z,92.60
2018-05-25T05:49:05.564Z,92.00
2018-05-25T05:51:33.101Z,92.10
2018-05-25T05:54:00.695Z,92.30
2018-05-25T05:56:28.305Z,92.20
2018-05-25T05:58:55.934Z,91.90
2018-05-25T06:01:23.514Z,91.70
2018-05-25T06:03:51.075Z,91.50
2018-05-25T06:06:18.694Z,91.60
2018-05-25T06:08:46.655Z,91.20
2018-05-25T06:11:14.245Z,91.20
2018-05-25T06:13:41.832Z,90.70
2018-05-25T06:16:09.398Z,90.70
2018-05-25T06:18:36.979Z,91.00
2018-05-25T06:21:04.555Z,90.80
2018-05-25T06:23:32.092Z,90.20
2018-05-25T06:25:59.670Z,89.70
2018-05-25T06:28:27.271Z,89.20
2018-05-25T06:30:54.902Z,89.40
2018-05-25T06:33:22.514Z,88.90
2018-05-25T06:35:50.130Z,88.50
2018-05-25T06:38:17.664Z,88.00
2018-05-25T06:40:45.238Z,87.90
2018-05-25T06:43:12.778Z,88.10
2018-05-25T06:45:40.376Z,88.90
2018-05-25T06:48:07.967Z,88.40
2018-05-25T06:50:35.639Z,87.90
2018-05-25T06:53:03.191Z,87.90
2018-05-25T06:55:30.778Z,86.20
2018-05-25T06:57:58.423Z,86.50
2018-05-25T07:00:25.990Z,85.30
2018-05-25T07:02:53.551Z,84.80
2018-05-25T07:05:22.230Z,85.20
2018-05-25T07:07:50.207Z,85.10
2018-05-25T07:10:17.843Z,85.00
2018-05-25T07:12:45.373Z,84.00
2018-05-25T07:15:12.997Z,83.50
2018-05-25T07:17:41.017Z,81.30
2018-05-25T07:20:08.561Z,81.30
2018-05-25T07:22:36.143Z,82.00
2018-05-25T07:25:03.691Z,81.00
2018-05-25T07:27:31.265Z,79.80
2018-05-25T07:29:59.208Z,79.70
2018-05-25T07:32:26.795Z,79.60
2018-05-25T07:34:54.386Z,75.50
2018-05-25T07:37:22.006Z,77.70
2018-05-25T07:39:49.547Z,77.90
2018-05-25T07:42:17.134Z,77.10
2018-05-25T07:44:44.667Z,78.00
2018-05-25T07:47:12.321Z,77.60
2018-05-25T07:49:39.873Z,78.00
2018-05-25T07:52:07.451Z,76.90
2018-05-25T07:54:35.020Z,75.30
2018-05-25T07:57:02.645Z,74.90
2018-05-25T07:59:30.191Z,74.40
2018-05-25T08:01:57.768Z,75.80
2018-05-25T08:04:25.368Z,74.10
2018-05-25T08:06:52.999Z,75.00
2018-05-25T08:09:20.615Z,75.00
2018-05-25T08:11:48.194Z,75.20
2018-05-25T08:14:15.763Z,75.20
2018-05-25T08:16:43.359Z,74.20
2018-05-25T08:19:10.955Z,72.90
2018-05-25T08:21:38.551Z,73.00
2018-05-25T08:24:06.216Z,72.10
2018-05-25T08:26:33.788Z,72.40
2018-05-25T08:29:01.395Z,71.90
2018-05-25T08:31:28.957Z,71.50
2018-05-25T08:33:56.540Z,69.90
2018-05-25T08:36:24.115Z,71.40
2018-05-25T08:38:51.697Z,71.60
2018-05-25T08:41:19.311Z,70.90
2018-05-25T08:43:46.902Z,70.90
2018-05-25T08:46:14.506Z,71.20
2018-05-25T08:48:42.129Z,69.20
2018-05-25T08:51:09.713Z,66.50
2018-05-25T08:53:37.300Z,65.80
2018-05-25T08:56:04.835Z,68.80
2018-05-25T08:58:32.410Z,69.40
2018-05-25T09:00:59.976Z,68.60
2018-05-25T09:03:27.601Z,68.90
2018-05-25T09:05:55.150Z,68.00
2018-05-25T09:08:23.127Z,65.80
2018-05-25T09:10:50.650Z,65.80
2018-05-25T09:13:18.242Z,68.50
2018-05-25T09:15:45.815Z,68.10
2018-05-25T09:18:13.427Z,63.10
2018-05-25T09:20:41.045Z,63.60
2018-05-25T09:23:08.635Z,65.60
2018-05-25T09:25:36.178Z,66.60
2018-05-25T09:28:03.806Z,68.00
2018-05-25T09:30:31.389Z,66.90
2018-05-25T09:32:58.930Z,64.60
2018-05-25T09:35:26.498Z,64.00
2018-05-25T09:37:54.058Z,65.00
2018-05-25T09:40:21.638Z,66.30
2018-05-25T09:42:49.211Z,61.20
2018-05-25T09:45:16.802Z,62.30
2018-05-25T09:47:44.351Z,65.00
2018-05-25T09:50:11.949Z,68.60
2018-05-25T09:52:39.499Z,68.50
2018-05-25T09:55:07.090Z,67.20
2018-05-25T09:57:34.621Z,65.50
2018-05-25T10:00:02.213Z,65.10
2018-05-25T10:02:29.778Z,61.90
2018-05-25T10:04:57.410Z,62.20
2018-05-25T10:07:24.979Z,61.90
2018-05-25T10:09:52.567Z,63.70
2018-05-25T10:12:20.156Z,59.60
2018-05-25T10:14:47.750Z,60.60
2018-05-25T10:17:15.294Z,62.30
2018-05-25T10:19:42.893Z,60.60
2018-05-25T10:22:10.434Z,62.20
2018-05-25T10:24:37.977Z,60.70
2018-05-25T10:27:05.596Z,59.60
2018-05-25T10:29:33.519Z,60.10
2018-05-25T10:32:01.056Z,59.70
2018-05-25T10:34:28.626Z,61.20
2018-05-25T10:36:56.194Z,61.20
2018-05-25T10:39:23.770Z,61.50
2018-05-25T10:41:51.345Z,56.90
2018-05-25T10:44:19.304Z,55.80
2018-05-25T10:46:46.885Z,55.80
2018-05-25T10:49:14.829Z,59.20
2018-05-25T10:51:42.410Z,59.20
2018-05-25T10:54:10.342Z,59.00
2018-05-25T10:56:38.326Z,58.90
2018-05-25T10:59:05.942Z,58.90
2018-05-25T11:01:33.530Z,59.80
2018-05-25T11:04:01.470Z,58.10
2018-05-25T11:06:30.255Z,58.10
2018-05-25T11:08:57.885Z,59.00
2018-05-25T11:11:25.459Z,57.70
2018-05-25T11:13:53.038Z,60.90
2018-05-25T11:16:20.583Z,64.40
2018-05-25T11:18:48.119Z,63.70
2018-05-25T11:21:15.706Z,62.20
2018-05-25T11:23:43.286Z,61.20
2018-05-25T11:26:10.923Z,60.50
2018-05-25T11:28:38.547Z,63.40
2018-05-25T11:31:06.525Z,60.30
2018-05-25T11:33:34.109Z,60.30
2018-05-25T11:36:01.662Z,62.00
2018-05-25T11:38:29.226Z,57.20
2018-05-25T11:40:57.914Z,56.40
2018-05-25T11:43:25.488Z,56.40
2018-05-25T11:45:53.082Z,58.10
2018-05-25T11:48:20.662Z,60.80
2018-05-25T11:50:48.228Z,60.20
2018-05-25T11:53:15.822Z,62.10
2018-05-25T11:55:43.391Z,61.60
2018-05-25T11:58:10.942Z,60.70
2018-05-25T12:00:56.235Z,61.30
2018-05-25T12:03:24.214Z,61.10
2018-05-25T12:05:52.143Z,60.10
2018-05-25T12:08:19.731Z,60.10
2018-05-25T12:10:47.307Z,63.50
2018-05-25T12:13:14.868Z,60.20
2018-05-25T12:15:42.450Z,58.10
2018-05-25T12:18:10.054Z,59.00
2018-05-25T12:20:37.626Z,58.80
2018-05-25T12:23:05.221Z,56.00
2018-05-25T12:25:32.810Z,60.90
2018-05-25T12:28:00.402Z,60.70
2018-05-25T12:30:27.950Z,61.30
2018-05-25T12:32:55.590Z,61.30
2018-05-25T12:35:23.143Z,61.10
2018-05-25T12:37:50.727Z,59.90
2018-05-25T12:40:18.290Z,58.50
2018-05-25T12:42:45.900Z,57.60
2018-05-25T12:45:13.506Z,60.60
2018-05-25T12:47:41.097Z,60.50
2018-05-25T12:50:08.667Z,60.80
2018-05-25T12:52:36.258Z,60.20
2018-05-25T12:55:03.822Z,55.00
2018-05-25T12:57:31.417Z,58.40
2018-05-25T12:59:58.972Z,57.80
2018-05-25T13:02:26.555Z,57.60
2018-05-25T13:04:54.178Z,55.80
2018-05-25T13:07:21.733Z,57.00
2018-05-25T13:09:49.358Z,55.60
2018-05-25T13:12:16.987Z,56.10
2018-05-25T13:14:44.562Z,59.80
2018-05-25T13:17:12.133Z,57.20
2018-05-25T13:19:41.651Z,60.10
2018-05-25T13:22:09.212Z,62.20
2018-05-25T13:24:36.811Z,59.30
2018-05-25T13:27:04.387Z,58.20
2018-05-25T13:29:31.985Z,54.20
2018-05-25T13:31:59.551Z,58.60
2018-05-25T13:34:27.127Z,56.60
2018-05-25T13:36:54.690Z,59.00
2018-05-25T13:39:22.278Z,56.40
2018-05-25T13:41:49.864Z,57.20
2018-05-25T13:44:17.495Z,53.70
2018-05-25T13:46:45.051Z,52.20
2018-05-25T13:49:13.084Z,48.50
2018-05-25T13:51:40.654Z,51.20
2018-05-25T13:54:08.223Z,50.20
2018-05-25T13:56:35.830Z,47.10
2018-05-25T13:59:17.730Z,45.80
2018-05-25T14:01:45.271Z,49.00
2018-05-25T14:04:12.839Z,49.70
2018-05-25T14:06:40.382Z,49.80
2018-05-25T14:09:07.982Z,48.30
2018-05-25T14:11:35.619Z,47.30
2018-05-25T14:14:03.266Z,46.90
2018-05-25T14:16:30.833Z,46.70
2018-05-25T14:18:58.408Z,45.90
2018-05-25T14:21:25.939Z,46.20
2018-05-25T14:23:53.510Z,48.00
2018-05-25T14:26:21.139Z,49.20
2018-05-25T14:28:48.749Z,48.40
2018-05-25T14:31:16.347Z,46.00
2018-05-25T14:33:43.983Z,45.60
2018-05-25T14:36:11.595Z,45.30
2018-05-25T14:38:39.166Z,45.90
2018-05-25T14:41:13.859Z,45.20
2018-05-25T14:43:41.425Z,43.30
2018-05-25T14:46:09.036Z,44.30
2018-05-25T14:48:36.577Z,45.20
2018-05-25T14:51:04.207Z,47.00
2018-05-25T14:53:31.770Z,44.80
2018-05-25T14:55:59.348Z,46.10
2018-05-25T14:58:26.930Z,45.50
2018-05-25T15:00:54.551Z,45.40
2018-05-25T15:03:22.118Z,45.40
2018-05-25T15:05:49.664Z,44.20
2018-05-25T15:08:17.215Z,45.70
2018-05-25T15:10:44.835Z,45.90
2018-05-25T15:13:12.362Z,44.60
2018-05-25T15:15:39.919Z,44.10
2018-05-25T15:18:07.469Z,44.50
2018-05-25T15:20:35.010Z,43.40
2018-05-25T15:23:02.541Z,43.70
2018-05-25T15:25:30.128Z,43.10
2018-05-25T15:27:57.674Z,42.20
2018-05-25T15:30:25.218Z,41.60
2018-05-25T15:32:52.806Z,42.80
2018-05-25T15:35:20.421Z,43.60
2018-05-25T15:37:48.000Z,42.40
2018-05-25T15:40:15.606Z,42.20
2018-05-25T15:42:43.193Z,41.80
2018-05-25T15:45:10.763Z,41.00
2018-05-25T15:47:38.726Z,43.20
2018-05-25T15:50:06.322Z,43.20
2018-05-25T15:52:33.930Z,43.30
2018-05-25T15:55:01.674Z,43.50
2018-05-25T15:57:29.300Z,42.20
2018-05-25T15:59:56.857Z,43.20
2018-05-25T16:02:24.442Z,41.70
2018-05-25T16:04:51.990Z,42.00
2018-05-25T16:07:19.833Z,42.90
2018-05-25T16:10:04.380Z,42.00
2018-05-25T16:12:32.101Z,42.60
2018-05-25T16:14:59.672Z,42.80
2018-05-25T16:17:27.262Z,42.00
2018-05-25T16:19:54.897Z,42.30
2018-05-25T16:22:22.510Z,42.50
2018-05-25T16:24:50.099Z,43.00
2018-05-25T16:27:17.654Z,43.10
2018-05-25T16:29:45.218Z,43.00
2018-05-25T16:32:13.303Z,42.40
2018-05-25T16:34:40.932Z,43.00
2018-05-25T16:37:08.523Z,43.10
2018-05-25T16:39:36.506Z,44.00
2018-05-25T16:42:04.095Z,44.00
2018-05-25T16:44:31.620Z,43.30
2018-05-25T16:46:59.258Z,44.20
2018-05-25T16:49:26.838Z,43.50
2018-05-25T16:51:54.422Z,43.30
2018-05-25T16:54:22.007Z,42.40
2018-05-25T16:56:49.631Z,43.70
2018-05-25T16:59:17.264Z,44.00
2018-05-25T17:01:44.839Z,44.10
2018-05-25T17:04:12.446Z,44.20
2018-05-25T17:06:39.984Z,44.30
2018-05-25T17:09:07.588Z,44.20
2018-05-25T17:11:35.147Z,44.00
2018-05-25T17:14:02.715Z,44.60
2018-05-25T17:16:30.254Z,44.70
2018-05-25T17:18:57.875Z,44.90
2018-05-25T17:21:25.447Z,45.30
2018-05-25T17:23:53.014Z,45.70
2018-05-25T17:26:20.546Z,46.80
2018-05-25T17:28:48.344Z,47.20
2018-05-25T17:31:15.913Z,47.30
2018-05-25T17:33:43.508Z,47.80
2018-05-25T17:36:11.190Z,47.60
2018-05-25T17:38:39.122Z,49.80
2018-05-25T17:41:06.751Z,49.80
2018-05-25T17:43:34.389Z,50.80
2018-05-25T17:46:01.951Z,51.60
2018-05-25T17:48:29.547Z,52.40
2018-05-25T17:50:57.114Z,52.10
2018-05-25T17:53:25.054Z,53.40
2018-05-25T17:55:52.675Z,53.40
2018-05-25T17:58:20.961Z,54.00
2018-05-25T18:00:48.586Z,54.50
2018-05-25T18:03:16.425Z,54.90
2018-05-25T18:05:43.975Z,55.00
2018-05-25T18:08:11.570Z,55.70
2018-05-25T18:10:39.208Z,56.50
2018-05-25T18:13:06.755Z,57.60
2018-05-25T18:15:49.367Z,57.70
2018-05-25T18:18:16.947Z,58.60
2018-05-25T18:20:45.069Z,60.70
2018-05-25T18:23:12.721Z,60.70
2018-05-25T18:25:40.250Z,61.50
2018-05-25T18:28:07.790Z,62.60
2018-05-25T18:30:35.395Z,63.90
2018-05-25T18:33:02.962Z,65.40
2018-05-25T18:35:30.534Z,66.70
2018-05-25T18:37:58.090Z,67.70
2018-05-25T18:40:25.938Z,68.40
2018-05-25T18:42:57.608Z,69.20
2018-05-25T18:45:25.207Z,69.80
2018-05-25T18:47:52.760Z,70.70
2018-05-25T18:50:20.368Z,70.90
2018-05-25T18:52:47.909Z,71.50
2018-05-25T18:55:15.536Z,72.00
2018-05-25T18:57:43.171Z,72.20
2018-05-25T19:00:10.772Z,72.40
2018-05-25T19:02:38.334Z,72.50
2018-05-25T19:05:05.971Z,72.60
2018-05-25T19:07:33.963Z,73.10
2018-05-25T19:10:01.511Z,73.10
2018-05-25T19:12:29.523Z,73.40
2018-05-25T19:14:57.082Z,73.40
2018-05-25T19:17:24.623Z,73.80
2018-05-25T19:19:52.304Z,74.20
2018-05-25T19:22:19.809Z,74.80
2018-05-25T19:24:47.404Z,75.70
2018-05-25T19:27:14.991Z,76.20
2018-05-25T19:29:42.545Z,76.50
2018-05-25T19:32:10.139Z,76.70
2018-05-25T19:34:37.711Z,77.10
2018-05-25T19:37:05.329Z,77.40
2018-05-25T19:39:32.908Z,77.70
2018-05-25T19:42:00.877Z,78.30
2018-05-25T19:44:28.491Z,78.30
2018-05-25T19:46:56.054Z,78.60
2018-05-25T19:49:23.590Z,78.80
2018-05-25T19:51:51.157Z,79.20
2018-05-25T19:54:18.703Z,79.80
2018-05-25T19:56:46.278Z,80.10
2018-05-25T19:59:13.827Z,80.70
2018-05-25T20:01:41.411Z,80.90
2018-05-25T20:04:08.963Z,81.10
2018-05-25T20:06:36.543Z,81.30
2018-05-25T20:09:04.078Z,81.60
2018-05-25T20:11:31.662Z,82.20
2018-05-25T20:13:59.223Z,82.20
2018-05-25T20:16:26.849Z,82.30
2018-05-25T20:18:54.423Z,82.40
2018-05-25T20:21:22.044Z,82.80
2018-05-25T20:23:49.578Z,83.40
2018-05-25T20:26:17.157Z,83.50
2018-05-25T20:28:44.777Z,83.60
2018-05-25T20:31:12.380Z,83.80
2018-05-25T20:33:39.967Z,83.90
2018-05-25T20:36:07.526Z,83.90
2018-05-25T20:38:35.094Z,84.30
2018-05-25T20:41:02.667Z,84.20
2018-05-25T20:43:30.253Z,84.60
2018-05-25T20:45:57.823Z,85.10
2018-05-25T20:48:25.408Z,85.20
2018-05-25T20:50:53.055Z,85.40
2018-05-25T20:53:20.683Z,86.00
2018-05-25T20:55:48.218Z,85.90
2018-05-25T20:58:15.774Z,86.20
2018-05-25T21:00:43.347Z,86.20
2018-05-25T21:03:10.942Z,86.30
2018-05-25T21:05:38.539Z,86.30
2018-05-25T21:08:06.113Z,86.50
2018-05-25T21:10:33.754Z,86.60
2018-05-25T21:13:01.372Z,86.80
2018-05-25T21:15:28.978Z,86.80
2018-05-25T21:17:56.640Z,86.80
2018-05-25T21:20:24.194Z,87.20
2018-05-25T21:22:51.810Z,87.70
2018-05-25T21:25:19.437Z,87.90
2018-05-25T21:27:47.042Z,88.30
2018-05-25T21:30:14.591Z,88.20
2018-05-25T21:32:42.205Z,88.40
2018-05-25T21:35:09.756Z,88.50
2018-05-25T21:37:37.388Z,88.80
2018-05-25T21:40:04.942Z,88.70
2018-05-25T21:42:32.615Z,88.80
2018-05-25T21:45:00.187Z,89.30
2018-05-25T21:47:27.791Z,89.50
2018-05-25T21:49:55.412Z,89.50
2018-05-25T21:52:22.981Z,89.50
2018-05-25T21:54:50.562Z,89.50
2018-05-25T21:57:18.134Z,89.60
2018-05-25T21:59:45.767Z,89.80
2018-05-25T22:02:13.331Z,89.60
2018-05-25T22:04:41.313Z,89.80
2018-05-25T22:07:08.889Z,89.90
2018-05-25T22:09:36.705Z,89.80
2018-05-25T22:12:04.245Z,89.50
2018-05-25T22:14:31.834Z,89.40
2018-05-25T22:16:59.387Z,89.70
2018-05-25T22:19:26.975Z,89.60
2018-05-25T22:21:54.556Z,90.20
2018-05-25T22:24:22.106Z,90.10
2018-05-25T22:26:49.700Z,89.90
2018-05-25T22:29:17.318Z,89.80
2018-05-25T22:31:44.903Z,90.10
2018-05-25T22:34:12.469Z,90.20
2018-05-25T22:36:40.043Z,90.30
2018-05-25T22:39:07.607Z,90.50
2018-05-25T22:41:35.220Z,90.40
2018-05-25T22:44:14.530Z,90.40
2018-05-25T22:46:53.810Z,90.70
2018-05-25T22:49:33.003Z,91.00
2018-05-25T22:52:12.286Z,91.00
2018-05-25T22:54:42.660Z,91.00
2018-05-25T22:57:10.258Z,91.10
2018-05-25T22:59:37.901Z,91.20
2018-05-25T23:02:05.580Z,91.10
2018-05-25T23:04:33.226Z,91.00
2018-05-25T23:07:00.783Z,91.40
2018-05-25T23:09:28.416Z,91.30
2018-05-25T23:11:55.974Z,91.60
2018-05-25T23:14:23.564Z,91.60
2018-05-25T23:16:51.186Z,91.50
2018-05-25T23:19:20.854Z,91.70
2018-05-25T23:21:48.427Z,91.70
2018-05-25T23:24:16.026Z,91.60
2018-05-25T23:26:43.601Z,91.50
2018-05-25T23:29:11.187Z,91.30
2018-05-25T23:31:38.807Z,91.10
2018-05-25T23:34:06.386Z,91.10
2018-05-25T23:36:33.943Z,91.40
2018-05-25T23:39:01.532Z,91.70
2018-05-25T23:41:29.503Z,92.10
2018-05-25T23:43:57.100Z,92.10
2018-05-25T23:46:24.686Z,91.60
2018-05-25T23:48:52.301Z,92.00
2018-05-25T23:51:20.253Z,93.00
2018-05-25T23:53:47.797Z,93.00
2018-05-25T23:56:15.403Z,93.00
2018-05-25T23:58:42.950Z,92.90
